Time;durP1;ratioP1;P1;durP2;ratioP2;P2;SDS_P1;SDS_P2;PMS_P1;PMS_P2;Temp;Humidity;BMP_temperature;BMP_pressure;BME280_temperature;BME280_humidity;BME280_pressure;Samples;Min_cycle;Max_cycle;Signal;HPM_P1;HPM_P2
2022/11/06 00:00:08;;;;;;;;;;;16.60;91.90;;;;;;5110090;28;19924;-68
2022/11/06 00:02:33;;;;;;;;;;;16.30;91.80;;;;;;5112034;28;19924;-67
2022/11/06 00:06:46;;;;;;;;;;;16.30;91.80;;;;;;5111050;28;19950;-67
2022/11/06 00:07:45;;;;;;;;;;;16.30;91.80;;;;;;5113176;28;19924;-67
2022/11/06 00:10:11;;;;;;;;;;;16.40;91.80;;;;;;5112336;28;20383;-67
2022/11/06 00:12:37;;;;;;;;;;;16.40;91.80;;;;;;5114971;28;20315;-68
2022/11/06 00:15:03;;;;;;;;;;;16.40;91.80;;;;;;5089591;28;19931;-70
2022/11/06 00:17:28;;;;;;;;;;;16.40;91.80;;;;;;5111316;28;19924;-68
2022/11/06 00:19:54;;;;;;;;;;;16.50;91.80;;;;;;5110957;28;20346;-68
2022/11/06 00:22:20;;;;;;;;;;;16.40;91.80;;;;;;5113715;28;19924;-68
2022/11/06 00:24:45;;;;;;;;;;;16.20;91.80;;;;;;5112103;28;19978;-68
2022/11/06 00:27:13;;;;;;;;;;;16.40;91.80;;;;;;5113058;28;20044;-69
2022/11/06 00:29:39;;;;;;;;;;;16.60;91.80;;;;;;5112233;28;19924;-69
2022/11/06 00:32:05;;;;;;;;;;;16.00;91.70;;;;;;5111195;28;20286;-69
2022/11/06 00:34:31;;;;;;;;;;;16.20;91.80;;;;;;5110853;28;19953;-70
2022/11/06 00:36:56;;;;;;;;;;;16.20;91.70;;;;;;5086649;28;20377;-68
2022/11/06 00:39:22;;;;;;;;;;;16.30;91.80;;;;;;5117063;28;19924;-68
2022/11/06 00:41:47;;;;;;;;;;;16.30;91.80;;;;;;5117142;28;19924;-69
2022/11/06 00:44:13;;;;;;;;;;;16.20;91.80;;;;;;5117707;28;19942;-68
2022/11/06 00:46:39;;;;;;;;;;;16.20;91.80;;;;;;5116414;28;19927;-68
2022/11/06 00:49:04;;;;;;;;;;;16.50;91.90;;;;;;5111605;28;20258;-68
2022/11/06 00:51:31;;;;;;;;;;;16.30;91.80;;;;;;5117435;28;19976;-70
2022/11/06 00:53:57;;;;;;;;;;;;;;;;;;5114938;28;20415;-69
2022/11/06 00:56:22;;;;;;;;;;;16.30;91.80;;;;;;5115792;28;19924;-68
2022/11/06 00:58:48;;;;;;;;;;;16.50;91.90;;;;;;5116970;28;19924;-69
2022/11/06 01:01:18;;;;;;;;;;;16.40;91.90;;;;;;5116627;28;19979;-69
2022/11/06 01:03:46;;;;;;;;;;;16.30;91.90;;;;;;5116094;28;19932;-68
2022/11/06 01:06:18;;;;;;;;;;;16.10;91.80;;;;;;5115322;28;20446;-69
2022/11/06 01:08:44;;;;;;;;;;;16.30;91.90;;;;;;5113844;28;19924;-68
2022/11/06 01:11:14;;;;;;;;;;;16.50;91.90;;;;;;5115898;28;20321;-68
2022/11/06 01:13:39;;;;;;;;;;;16.20;91.90;;;;;;5115482;28;19924;-69
2022/11/06 01:16:06;;;;;;;;;;;16.40;92.00;;;;;;5115709;28;19976;-70
2022/11/06 01:18:32;;;;;;;;;;;16.20;91.90;;;;;;5098829;28;19924;-68
2022/11/06 01:20:58;;;;;;;;;;;16.00;91.90;;;;;;5098432;28;20377;-67
2022/11/06 01:23:23;;;;;;;;;;;16.40;92.00;;;;;;5112861;28;19923;-67
2022/11/06 01:25:56;;;;;;;;;;;16.10;91.90;;;;;;5115621;28;19924;-67
2022/11/06 01:28:22;;;;;;;;;;;16.10;92.00;;;;;;5116607;28;20373;-67
2022/11/06 01:30:47;;;;;;;;;;;16.00;92.00;;;;;;5116272;27;19931;-67
2022/11/06 01:33:13;;;;;;;;;;;16.00;91.90;;;;;;5116186;28;20028;-66
2022/11/06 01:35:45;;;;;;;;;;;16.40;92.10;;;;;;5115664;28;19997;-67
2022/11/06 01:38:11;;;;;;;;;;;16.30;92.10;;;;;;5116834;28;19932;-68
2022/11/06 01:40:40;;;;;;;;;;;16.30;92.10;;;;;;5105829;28;19924;-67
2022/11/06 01:43:13;;;;;;;;;;;16.30;92.10;;;;;;5096994;28;19964;-67
2022/11/06 01:45:39;;;;;;;;;;;15.90;92.00;;;;;;5109055;28;19963;-67
2022/11/06 01:48:05;;;;;;;;;;;16.00;92.10;;;;;;5113671;28;19974;-69
2022/11/06 01:50:31;;;;;;;;;;;16.00;92.10;;;;;;5115688;28;19924;-67
2022/11/06 01:52:59;;;;;;;;;;;16.30;92.20;;;;;;5114898;27;19924;-67
2022/11/06 01:55:26;;;;;;;;;;;16.10;92.10;;;;;;5113321;28;20323;-67
2022/11/06 01:57:52;;;;;;;;;;;16.20;92.30;;;;;;5107413;28;19969;-70
2022/11/06 02:00:19;;;;;;;;;;;16.20;92.20;;;;;;5114159;28;19957;-70
2022/11/06 02:02:44;;;;;;;;;;;16.20;92.30;;;;;;5115977;28;19924;-69
2022/11/06 02:05:10;;;;;;;;;;;16.30;92.30;;;;;;5096938;28;20342;-69
2022/11/06 02:07:35;;;;;;;;;;;16.20;92.30;;;;;;5094138;28;19924;-68
2022/11/06 02:10:01;;;;;;;;;;;16.20;92.30;;;;;;5114820;28;20378;-68
2022/11/06 02:12:42;;;;;;;;;;;16.10;92.20;;;;;;5113832;28;19994;-67
2022/11/06 02:15:14;;;;;;;;;;;16.30;92.40;;;;;;5113982;28;20301;-67
2022/11/06 02:17:39;;;;;;;;;;;16.10;92.30;;;;;;5116721;28;19959;-67
2022/11/06 02:20:17;;;;;;;;;;;16.10;92.30;;;;;;5115805;28;19974;-70
2022/11/06 02:22:52;;;;;;;;;;;16.00;92.30;;;;;;5122574;27;19938;-69
2022/11/06 02:25:21;;;;;;;;;;;16.10;92.30;;;;;;5114020;28;19931;-69
2022/11/06 02:27:47;;;;;;;;;;;16.00;92.10;;;;;;5112598;28;19924;-69
2022/11/06 02:30:13;;;;;;;;;;;16.00;92.40;;;;;;5094087;28;19931;-69
2022/11/06 02:32:39;;;;;;;;;;;16.10;92.40;;;;;;5088782;28;19924;-69
2022/11/06 02:35:25;;;;;;;;;;;16.10;92.40;;;;;;5108320;28;19928;-70
2022/11/06 02:37:52;;;;;;;;;;;15.80;92.30;;;;;;5114548;28;20420;-69
2022/11/06 02:40:18;;;;;;;;;;;16.20;92.40;;;;;;5113570;28;19954;-67
2022/11/06 02:42:45;;;;;;;;;;;16.00;92.30;;;;;;5095966;28;19950;-67
2022/11/06 02:45:11;;;;;;;;;;;16.10;92.40;;;;;;5113123;28;19924;-67
2022/11/06 02:47:37;;;;;;;;;;;16.10;92.40;;;;;;5112548;28;19931;-67
2022/11/06 02:50:04;;;;;;;;;;;16.10;92.40;;;;;;5090739;28;19924;-67
2022/11/06 02:52:31;;;;;;;;;;;16.00;92.40;;;;;;5076462;28;19931;-66
2022/11/06 02:55:29;;;;;;;;;;;15.90;92.40;;;;;;5113870;28;19930;-67
2022/11/06 02:57:56;;;;;;;;;;;15.80;92.40;;;;;;5048720;28;19948;-67
2022/11/06 03:00:24;;;;;;;;;;;16.00;92.50;;;;;;5034350;28;19925;-67
2022/11/06 03:02:53;;;;;;;;;;;16.20;92.50;;;;;;5066693;28;19928;-67
2022/11/06 03:05:19;;;;;;;;;;;16.00;92.50;;;;;;5034307;28;19925;-68
2022/11/06 03:08:07;;;;;;;;;;;16.10;92.50;;;;;;5054410;28;19924;-67
2022/11/06 03:10:33;;;;;;;;;;;;;;;;;;5066066;28;19924;-67
2022/11/06 03:13:01;;;;;;;;;;;16.10;92.50;;;;;;5058808;28;19924;-67
2022/11/06 03:15:29;;;;;;;;;;;16.10;92.50;;;;;;5051582;28;20413;-67
2022/11/06 03:18:13;;;;;;;;;;;15.90;92.50;;;;;;5047214;28;19970;-67
2022/11/06 03:20:40;;;;;;;;;;;16.10;92.50;;;;;;5071894;28;19924;-66
2022/11/06 03:23:10;;;;;;;;;;;16.20;92.60;;;;;;5054428;28;20011;-67
2022/11/06 03:25:47;;;;;;;;;;;15.80;92.50;;;;;;5069071;28;19925;-66
2022/11/06 03:28:13;;;;;;;;;;;16.10;92.60;;;;;;5046904;28;19924;-67
2022/11/06 03:30:40;;;;;;;;;;;15.80;92.50;;;;;;5068554;28;20012;-69
2022/11/06 03:33:19;;;;;;;;;;;15.80;92.50;;;;;;5062624;28;20285;-68
2022/11/06 03:35:53;;;;;;;;;;;16.10;92.70;;;;;;5093180;28;19931;-67
2022/11/06 03:38:22;;;;;;;;;;;16.10;92.70;;;;;;5113549;28;19992;-68
2022/11/06 03:40:49;;;;;;;;;;;15.90;92.60;;;;;;5094990;28;19966;-67
2022/11/06 03:43:15;;;;;;;;;;;16.20;92.70;;;;;;5114072;27;19923;-68
2022/11/06 03:45:41;;;;;;;;;;;;;;;;;;5095872;28;20091;-67
2022/11/06 03:48:08;;;;;;;;;;;16.00;92.60;;;;;;5113204;28;19985;-68
2022/11/06 03:50:35;;;;;;;;;;;16.00;92.60;;;;;;5095880;28;19923;-70
2022/11/06 03:53:03;;;;;;;;;;;16.10;92.70;;;;;;5077773;28;19967;-67
2022/11/06 03:55:30;;;;;;;;;;;15.80;92.60;;;;;;5111869;28;19992;-66
2022/11/06 03:57:57;;;;;;;;;;;16.10;92.70;;;;;;5090282;28;19973;-68
2022/11/06 04:00:23;;;;;;;;;;;16.20;92.80;;;;;;5112018;28;19924;-68
2022/11/06 04:03:03;;;;;;;;;;;16.00;92.70;;;;;;5095524;28;20281;-68
2022/11/06 04:05:30;;;;;;;;;;;15.80;92.60;;;;;;5096626;28;19931;-69
2022/11/06 04:16:10;;;;;;;;;;;16.00;92.70;;;;;;5110325;28;19977;-69
2022/11/06 04:18:36;;;;;;;;;;;15.80;92.60;;;;;;5111511;28;20024;-69
2022/11/06 04:21:21;;;;;;;;;;;16.00;92.70;;;;;;5111241;28;20377;-71
2022/11/06 04:26:34;;;;;;;;;;;16.00;92.70;;;;;;5110985;28;20305;-67
2022/11/06 04:26:41;;;;;;;;;;;16.20;92.70;;;;;;5108953;28;20284;-70
2022/11/06 04:29:16;;;;;;;;;;;16.20;92.70;;;;;;5093852;28;19924;-69
2022/11/06 04:31:47;;;;;;;;;;;16.00;92.70;;;;;;5109119;28;20398;-66
2022/11/06 04:34:20;;;;;;;;;;;16.10;92.70;;;;;;5103951;28;20292;-67
2022/11/06 04:36:46;;;;;;;;;;;16.00;92.70;;;;;;5090319;28;20293;-71
2022/11/06 04:39:15;;;;;;;;;;;16.30;92.70;;;;;;5093487;28;19924;-66
2022/11/06 04:41:43;;;;;;;;;;;15.90;92.70;;;;;;5094662;28;19928;-67
2022/11/06 04:44:22;;;;;;;;;;;15.90;92.70;;;;;;5111698;28;19931;-66
2022/11/06 04:46:50;;;;;;;;;;;16.20;92.70;;;;;;5091464;28;19924;-69
2022/11/06 04:49:16;;;;;;;;;;;;;;;;;;5093771;28;20012;-69
2022/11/06 04:51:42;;;;;;;;;;;16.00;92.70;;;;;;5109220;28;20396;-69
2022/11/06 04:54:07;;;;;;;;;;;15.90;92.70;;;;;;5091573;28;19924;-68
2022/11/06 04:56:33;;;;;;;;;;;16.20;92.70;;;;;;5109408;28;19931;-69
2022/11/06 04:58:59;;;;;;;;;;;16.10;92.70;;;;;;5111059;28;19932;-66
2022/11/06 05:01:25;;;;;;;;;;;15.90;92.70;;;;;;5112160;28;19931;-68
2022/11/06 05:03:50;;;;;;;;;;;16.20;92.70;;;;;;5108690;28;19928;-68
2022/11/06 05:06:16;;;;;;;;;;;16.00;92.60;;;;;;5110179;28;20022;-69
2022/11/06 05:08:42;;;;;;;;;;;16.10;92.70;;;;;;5110862;28;19923;-69
2022/11/06 05:11:07;;;;;;;;;;;15.80;92.60;;;;;;5111781;28;19924;-69
2022/11/06 05:13:33;;;;;;;;;;;16.10;92.70;;;;;;5112198;28;19946;-69
2022/11/06 05:15:59;;;;;;;;;;;16.30;92.70;;;;;;5110510;28;19924;-69
2022/11/06 05:18:24;;;;;;;;;;;16.30;92.70;;;;;;5110747;28;19924;-69
2022/11/06 05:22:56;;;;;;;;;;;;;;;;;;5105786;28;20015;-68
2022/11/06 05:23:39;;;;;;;;;;;15.80;92.60;;;;;;5114890;28;19968;-68
2022/11/06 05:26:05;;;;;;;;;;;16.10;92.70;;;;;;5115339;28;20022;-70
2022/11/06 05:28:31;;;;;;;;;;;15.90;92.70;;;;;;5076120;28;20069;-70
2022/11/06 05:30:57;;;;;;;;;;;15.90;92.60;;;;;;5077860;28;19924;-70
2022/11/06 05:33:25;;;;;;;;;;;15.90;92.60;;;;;;5096628;28;19931;-71
2022/11/06 05:35:51;;;;;;;;;;;16.10;92.80;;;;;;5113979;28;19931;-68
2022/11/06 05:38:17;;;;;;;;;;;16.10;92.70;;;;;;5108827;27;19968;-68
2022/11/06 05:40:42;;;;;;;;;;;16.00;92.80;;;;;;5112720;28;19999;-71
2022/11/06 05:43:08;;;;;;;;;;;16.00;92.80;;;;;;5112399;28;20385;-67
2022/11/06 05:45:34;;;;;;;;;;;16.20;92.80;;;;;;5095667;28;19931;-70
2022/11/06 05:48:00;;;;;;;;;;;16.00;92.70;;;;;;5108864;28;19927;-67
2022/11/06 05:50:26;;;;;;;;;;;16.20;92.70;;;;;;5106812;28;19932;-67
2022/11/06 05:52:51;;;;;;;;;;;16.30;92.80;;;;;;5108983;28;20446;-67
2022/11/06 05:55:17;;;;;;;;;;;16.10;92.70;;;;;;5108680;28;19924;-67
2022/11/06 05:57:42;;;;;;;;;;;16.10;92.70;;;;;;5096371;28;19923;-66
2022/11/06 06:00:09;;;;;;;;;;;16.20;92.80;;;;;;5112161;28;19931;-66
2022/11/06 06:02:35;;;;;;;;;;;15.90;92.70;;;;;;5094602;28;19934;-67
2022/11/06 06:05:00;;;;;;;;;;;16.30;92.70;;;;;;5112806;28;20018;-67
2022/11/06 06:07:26;;;;;;;;;;;16.10;92.90;;;;;;5111383;28;19927;-67
2022/11/06 06:09:52;;;;;;;;;;;16.10;92.70;;;;;;5109784;28;19924;-71
2022/11/06 06:12:18;;;;;;;;;;;;;;;;;;5104457;28;19989;-68
2022/11/06 06:14:44;;;;;;;;;;;16.30;92.80;;;;;;5109502;28;19934;-68
2022/11/06 06:17:09;;;;;;;;;;;16.10;92.70;;;;;;5110260;28;19924;-68
2022/11/06 06:19:35;;;;;;;;;;;16.20;92.70;;;;;;5105215;28;20392;-66
2022/11/06 06:22:01;;;;;;;;;;;15.90;92.70;;;;;;5094559;28;19935;-69
2022/11/06 06:24:26;;;;;;;;;;;15.80;92.70;;;;;;5093862;28;19924;-69
2022/11/06 06:26:52;;;;;;;;;;;15.90;92.70;;;;;;5110419;28;19924;-69
2022/11/06 06:29:18;;;;;;;;;;;16.00;92.70;;;;;;5110735;27;20301;-68
2022/11/06 06:31:43;;;;;;;;;;;16.10;92.70;;;;;;5111331;28;19927;-70
2022/11/06 06:34:09;;;;;;;;;;;16.10;92.90;;;;;;5111401;28;19932;-68
2022/11/06 06:36:35;;;;;;;;;;;;;;;;;;5110684;28;19935;-67
2022/11/06 06:39:01;;;;;;;;;;;16.00;92.70;;;;;;5110386;28;19943;-69
2022/11/06 06:41:26;;;;;;;;;;;15.90;92.70;;;;;;5109731;28;20304;-67
2022/11/06 06:43:52;;;;;;;;;;;15.80;92.70;;;;;;5112132;28;19924;-66
2022/11/06 06:46:18;;;;;;;;;;;16.20;92.80;;;;;;5109040;28;19931;-70
2022/11/06 06:48:43;;;;;;;;;;;16.30;92.80;;;;;;5118539;27;19942;-70
2022/11/06 06:51:09;;;;;;;;;;;16.10;92.80;;;;;;5110114;28;19924;-68
2022/11/06 06:53:35;;;;;;;;;;;16.00;92.70;;;;;;5107693;28;19971;-72
2022/11/06 06:56:00;;;;;;;;;;;16.10;92.80;;;;;;5093300;28;20073;-68
2022/11/06 06:58:26;;;;;;;;;;;16.00;92.70;;;;;;5109217;28;19924;-67
2022/11/06 07:00:52;;;;;;;;;;;;;;;;;;5110340;28;21301;-67
2022/11/06 07:03:18;;;;;;;;;;;16.00;92.80;;;;;;5110481;27;19924;-69
2022/11/06 07:05:45;;;;;;;;;;;16.00;92.70;;;;;;5109690;28;19985;-67
2022/11/06 07:08:11;;;;;;;;;;;16.20;92.80;;;;;;5110181;28;19934;-68
2022/11/06 07:10:36;;;;;;;;;;;16.30;92.80;;;;;;5110787;28;19924;-67
2022/11/06 07:13:02;;;;;;;;;;;16.10;92.70;;;;;;5110399;28;19924;-69
2022/11/06 07:15:28;;;;;;;;;;;16.10;92.70;;;;;;5111336;28;20049;-69
2022/11/06 07:17:54;;;;;;;;;;;16.00;92.70;;;;;;5111428;28;19931;-69
2022/11/06 07:20:19;;;;;;;;;;;16.10;92.70;;;;;;5110055;28;20304;-67
2022/11/06 07:22:45;;;;;;;;;;;16.30;92.70;;;;;;5107688;28;19924;-67
2022/11/06 07:25:11;;;;;;;;;;;16.10;92.70;;;;;;5072776;28;20664;-67
2022/11/06 07:27:36;;;;;;;;;;;16.10;92.40;;;;;;5111649;28;19924;-69
2022/11/06 07:30:02;;;;;;;;;;;16.30;92.70;;;;;;5110125;28;19935;-67
2022/11/06 07:32:29;;;;;;;;;;;15.90;92.50;;;;;;5095369;28;19978;-69
2022/11/06 07:34:54;;;;;;;;;;;16.10;92.60;;;;;;5111172;28;20335;-70
2022/11/06 07:37:20;;;;;;;;;;;16.10;92.60;;;;;;5105742;28;19928;-67
2022/11/06 07:39:46;;;;;;;;;;;16.30;92.70;;;;;;5104978;28;19960;-67
2022/11/06 07:42:11;;;;;;;;;;;16.10;92.60;;;;;;5104668;28;19924;-67
2022/11/06 07:44:37;;;;;;;;;;;16.30;92.60;;;;;;5106371;28;19927;-67
2022/11/06 07:47:03;;;;;;;;;;;16.40;92.60;;;;;;5089429;28;20377;-67
2022/11/06 07:49:29;;;;;;;;;;;16.30;92.70;;;;;;5109211;28;19924;-68
2022/11/06 07:51:54;;;;;;;;;;;16.10;92.50;;;;;;5105173;27;19923;-68
2022/11/06 07:54:20;;;;;;;;;;;16.10;92.50;;;;;;5106422;28;19989;-69
2022/11/06 07:56:46;;;;;;;;;;;16.30;92.60;;;;;;5093669;28;20440;-68
2022/11/06 07:59:11;;;;;;;;;;;16.30;92.60;;;;;;5086833;28;20297;-68
2022/11/06 08:01:37;;;;;;;;;;;16.00;92.50;;;;;;5104644;28;20482;-68
2022/11/06 08:04:03;;;;;;;;;;;;;;;;;;5105454;28;19975;-70
2022/11/06 08:06:29;;;;;;;;;;;16.10;92.70;;;;;;5107971;28;20340;-68
2022/11/06 08:08:55;;;;;;;;;;;16.30;92.60;;;;;;5084080;28;20012;-69
2022/11/06 08:11:20;;;;;;;;;;;16.30;92.60;;;;;;5101794;28;19982;-67
2022/11/06 08:13:46;;;;;;;;;;;16.30;92.60;;;;;;5102898;28;20005;-70
2022/11/06 08:16:12;;;;;;;;;;;16.30;92.50;;;;;;5108978;28;20679;-69
2022/11/06 08:18:38;;;;;;;;;;;;;;;;;;5109772;28;20022;-67
2022/11/06 08:21:04;;;;;;;;;;;16.40;92.60;;;;;;5090207;28;19963;-69
2022/11/06 08:23:29;;;;;;;;;;;16.30;92.60;;;;;;5112104;28;20412;-67
2022/11/06 08:25:56;;;;;;;;;;;;;;;;;;5111069;28;19931;-69
2022/11/06 08:28:22;;;;;;;;;;;16.40;92.60;;;;;;5088434;28;19931;-68
2022/11/06 08:30:47;;;;;;;;;;;16.50;92.70;;;;;;5077739;28;20388;-67
2022/11/06 08:33:13;;;;;;;;;;;16.30;92.60;;;;;;5112139;28;19970;-66
2022/11/06 08:35:39;;;;;;;;;;;16.30;92.60;;;;;;5113637;28;19932;-67
2022/11/06 08:38:04;;;;;;;;;;;16.40;92.70;;;;;;5094168;28;19924;-67
2022/11/06 08:40:30;;;;;;;;;;;16.30;92.60;;;;;;5112297;28;20014;-67
2022/11/06 08:42:59;;;;;;;;;;;16.30;92.60;;;;;;5112737;28;19980;-68
2022/11/06 08:45:24;;;;;;;;;;;16.00;92.50;;;;;;5110257;28;19985;-68
2022/11/06 08:47:50;;;;;;;;;;;16.00;92.50;;;;;;5103464;28;19928;-69
2022/11/06 08:50:16;;;;;;;;;;;16.20;92.60;;;;;;5104085;28;20384;-68
2022/11/06 08:52:41;;;;;;;;;;;16.20;92.70;;;;;;5105808;28;20052;-68
2022/11/06 08:55:07;;;;;;;;;;;16.10;92.70;;;;;;5111106;28;20018;-67
2022/11/06 08:57:33;;;;;;;;;;;16.10;92.70;;;;;;5116799;28;19983;-68
2022/11/06 08:59:58;;;;;;;;;;;16.10;92.80;;;;;;5116209;28;19924;-68
2022/11/06 09:02:24;;;;;;;;;;;16.00;92.90;;;;;;5115540;28;20407;-68
2022/11/06 09:04:50;;;;;;;;;;;16.00;93.00;;;;;;5116618;28;20343;-70
2022/11/06 09:07:15;;;;;;;;;;;15.80;93.00;;;;;;5082493;28;19969;-68
2022/11/06 09:09:41;;;;;;;;;;;16.20;93.10;;;;;;5116475;28;19923;-67
2022/11/06 09:12:07;;;;;;;;;;;15.90;93.00;;;;;;5116591;28;19924;-68
2022/11/06 09:14:33;;;;;;;;;;;15.90;93.00;;;;;;5094339;28;20375;-66
2022/11/06 09:16:58;;;;;;;;;;;16.10;93.00;;;;;;5092677;28;19976;-69
2022/11/06 09:19:24;;;;;;;;;;;15.90;92.90;;;;;;5115452;28;19927;-68
2022/11/06 09:21:50;;;;;;;;;;;16.20;93.10;;;;;;5115450;28;19934;-69
2022/11/06 09:24:15;;;;;;;;;;;16.00;93.00;;;;;;5117465;28;19970;-69
2022/11/06 09:26:41;;;;;;;;;;;15.90;93.00;;;;;;5117281;28;19923;-69
2022/11/06 09:29:06;;;;;;;;;;;15.80;93.00;;;;;;5117939;27;19923;-66
2022/11/06 09:31:32;;;;;;;;;;;16.10;93.00;;;;;;5115570;28;20007;-66
2022/11/06 09:33:58;;;;;;;;;;;16.10;93.00;;;;;;5116418;28;19930;-66
2022/11/06 09:36:23;;;;;;;;;;;16.00;93.00;;;;;;5108681;28;19924;-66
2022/11/06 09:38:49;;;;;;;;;;;16.20;93.00;;;;;;5078676;28;20388;-69
2022/11/06 09:41:15;;;;;;;;;;;;;;;;;;5105489;28;19928;-69
2022/11/06 09:43:46;;;;;;;;;;;16.00;93.00;;;;;;5117043;28;19928;-69
2022/11/06 09:46:17;;;;;;;;;;;16.00;93.00;;;;;;5115811;28;20021;-68
2022/11/06 09:48:44;;;;;;;;;;;16.10;93.10;;;;;;5099182;28;19923;-66
2022/11/06 09:51:18;;;;;;;;;;;16.00;93.10;;;;;;5115974;28;19931;-66
2022/11/06 09:53:44;;;;;;;;;;;;;;;;;;5086928;28;19983;-66
2022/11/06 09:56:09;;;;;;;;;;;16.00;93.00;;;;;;5100783;28;19977;-66
2022/11/06 09:58:36;;;;;;;;;;;16.20;93.10;;;;;;5115948;28;20313;-66
2022/11/06 10:01:07;;;;;;;;;;;16.20;93.10;;;;;;5098607;28;19927;-68
2022/11/06 10:03:42;;;;;;;;;;;16.20;93.10;;;;;;5098475;28;20202;-68
2022/11/06 10:06:07;;;;;;;;;;;16.20;93.10;;;;;;5112765;28;19966;-65
2022/11/06 10:08:33;;;;;;;;;;;16.20;93.10;;;;;;5115040;28;19951;-69
2022/11/06 10:11:06;;;;;;;;;;;16.20;93.10;;;;;;5105227;28;19924;-68
2022/11/06 10:13:36;;;;;;;;;;;16.20;93.10;;;;;;5091714;28;19930;-69
2022/11/06 10:16:04;;;;;;;;;;;16.10;93.00;;;;;;5093108;28;20300;-68
2022/11/06 10:18:35;;;;;;;;;;;16.50;93.10;;;;;;5113503;28;19923;-67
2022/11/06 10:21:05;;;;;;;;;;;16.30;92.70;;;;;;5109273;28;19923;-66
2022/11/06 10:23:34;;;;;;;;;;;16.30;93.10;;;;;;5112523;28;19997;-69
2022/11/06 10:26:02;;;;;;;;;;;16.40;93.10;;;;;;5115040;28;20442;-65
2022/11/06 10:28:34;;;;;;;;;;;16.30;93.10;;;;;;5115019;28;20007;-69
2022/11/06 10:31:23;;;;;;;;;;;16.50;93.20;;;;;;5101363;28;20415;-67
2022/11/06 10:33:56;;;;;;;;;;;16.20;93.10;;;;;;5097021;28;19982;-66
2022/11/06 10:36:23;;;;;;;;;;;16.40;93.20;;;;;;5111436;28;20305;-69
2022/11/06 10:38:49;;;;;;;;;;;16.30;93.10;;;;;;5097697;28;19981;-66
2022/11/06 10:41:25;;;;;;;;;;;16.20;93.10;;;;;;5114770;28;20388;-69
2022/11/06 10:43:55;;;;;;;;;;;16.40;93.20;;;;;;5097358;28;19935;-69
2022/11/06 10:46:26;;;;;;;;;;;16.30;93.20;;;;;;5113709;28;19928;-68
2022/11/06 10:48:53;;;;;;;;;;;16.20;93.20;;;;;;5115770;28;19930;-69
2022/11/06 10:51:28;;;;;;;;;;;16.20;93.10;;;;;;5114911;28;19927;-68
2022/11/06 10:54:07;;;;;;;;;;;16.10;93.20;;;;;;5115797;27;19924;-69
2022/11/06 10:56:33;;;;;;;;;;;16.30;93.20;;;;;;5112496;28;19932;-68
2022/11/06 10:58:59;;;;;;;;;;;16.40;93.20;;;;;;5115805;28;19931;-69
2022/11/06 11:01:24;;;;;;;;;;;16.40;93.20;;;;;;5105942;28;19924;-68
2022/11/06 11:03:50;;;;;;;;;;;16.50;93.40;;;;;;5095467;28;19935;-67
2022/11/06 11:06:16;;;;;;;;;;;16.20;93.10;;;;;;5082622;28;20401;-66
2022/11/06 11:08:43;;;;;;;;;;;16.30;93.10;;;;;;5114531;28;19930;-69
2022/11/06 11:11:12;;;;;;;;;;;16.20;93.40;;;;;;5115731;28;19930;-67
2022/11/06 11:13:38;;;;;;;;;;;16.40;93.30;;;;;;5114408;28;19963;-68
2022/11/06 11:16:04;;;;;;;;;;;16.20;93.30;;;;;;5113332;28;19996;-67
2022/11/06 11:18:33;;;;;;;;;;;16.50;93.40;;;;;;5106439;28;19938;-68
2022/11/06 11:21:10;;;;;;;;;;;16.30;93.40;;;;;;5094863;28;19925;-67
2022/11/06 11:23:36;;;;;;;;;;;16.30;93.50;;;;;;5096117;28;19923;-67
2022/11/06 11:26:15;;;;;;;;;;;16.30;93.60;;;;;;5115074;28;19924;-67
2022/11/06 11:28:40;;;;;;;;;;;16.40;93.70;;;;;;5090216;28;19927;-68
2022/11/06 11:31:07;;;;;;;;;;;16.50;93.80;;;;;;5114950;28;19931;-68
2022/11/06 11:33:33;;;;;;;;;;;16.40;94.00;;;;;;5115008;28;19989;-68
2022/11/06 11:35:59;;;;;;;;;;;16.20;94.10;;;;;;5105970;28;19983;-68
2022/11/06 11:38:24;;;;;;;;;;;16.10;94.10;;;;;;5112508;28;19924;-67
2022/11/06 11:40:50;;;;;;;;;;;16.20;94.20;;;;;;5096496;28;20014;-68
2022/11/06 11:43:20;;;;;;;;;;;16.20;94.30;;;;;;5114279;28;19927;-65
2022/11/06 11:46:05;;;;;;;;;;;16.20;94.30;;;;;;5113902;28;19966;-67
2022/11/06 11:48:43;;;;;;;;;;;16.40;94.50;;;;;;5095467;28;20281;-66
2022/11/06 11:51:13;;;;;;;;;;;16.20;94.50;;;;;;5114958;28;19923;-66
2022/11/06 11:53:38;;;;;;;;;;;16.10;94.40;;;;;;5100083;28;19947;-66
2022/11/06 11:56:04;;;;;;;;;;;16.10;94.60;;;;;;5087749;28;19924;-66
2022/11/06 11:58:32;;;;;;;;;;;16.10;94.60;;;;;;5101949;28;20018;-66
2022/11/06 12:00:59;;;;;;;;;;;16.30;94.60;;;;;;5107395;28;19966;-69
2022/11/06 12:03:26;;;;;;;;;;;16.30;94.50;;;;;;5105725;28;20270;-67
2022/11/06 12:05:51;;;;;;;;;;;16.30;94.40;;;;;;5101068;28;19923;-67
2022/11/06 12:08:21;;;;;;;;;;;16.30;94.40;;;;;;5101416;28;19924;-68
2022/11/06 12:10:47;;;;;;;;;;;16.40;94.30;;;;;;5108322;28;19923;-69
2022/11/06 12:13:13;;;;;;;;;;;;;;;;;;5092610;28;19954;-68
2022/11/06 12:15:51;;;;;;;;;;;16.40;94.10;;;;;;5101821;28;19963;-66
2022/11/06 12:18:21;;;;;;;;;;;16.40;94.10;;;;;;5086637;28;19924;-68
2022/11/06 12:20:47;;;;;;;;;;;16.40;94.10;;;;;;5106589;28;19923;-68
2022/11/06 12:23:14;;;;;;;;;;;16.60;94.10;;;;;;5102779;28;19931;-66
2022/11/06 12:25:40;;;;;;;;;;;16.60;94.00;;;;;;5103501;28;19978;-67
2022/11/06 12:28:09;;;;;;;;;;;16.70;94.10;;;;;;5074494;28;19927;-66
2022/11/06 12:30:35;;;;;;;;;;;16.50;93.70;;;;;;5108646;28;19923;-68
2022/11/06 12:33:02;;;;;;;;;;;16.70;94.00;;;;;;5093275;28;20568;-66
2022/11/06 12:35:28;;;;;;;;;;;16.80;93.90;;;;;;5092164;28;20657;-68
2022/11/06 12:37:53;;;;;;;;;;;16.70;94.00;;;;;;5131539;27;20014;-68
2022/11/06 12:40:20;;;;;;;;;;;16.80;93.90;;;;;;5108306;28;19947;-72
2022/11/06 12:42:51;;;;;;;;;;;16.60;93.80;;;;;;5084627;28;19971;-71
2022/11/06 12:45:17;;;;;;;;;;;16.90;93.90;;;;;;5090254;28;19969;-67
2022/11/06 12:48:05;;;;;;;;;;;17.00;94.00;;;;;;5107444;28;20380;-70
2022/11/06 12:50:49;;;;;;;;;;;16.80;94.10;;;;;;5087243;28;19963;-70
2022/11/06 12:53:19;;;;;;;;;;;16.90;94.20;;;;;;5103980;28;19928;-67
2022/11/06 12:55:48;;;;;;;;;;;16.80;94.20;;;;;;5103354;28;19939;-68
2022/11/06 12:58:27;;;;;;;;;;;16.80;94.10;;;;;;5089357;28;20049;-66
2022/11/06 13:00:59;;;;;;;;;;;16.80;94.10;;;;;;5108082;28;20069;-68
2022/11/06 13:03:49;;;;;;;;;;;16.70;94.10;;;;;;5108247;28;20014;-65
2022/11/06 13:06:17;;;;;;;;;;;16.90;94.20;;;;;;5110752;28;19963;-69
2022/11/06 13:08:49;;;;;;;;;;;17.00;94.00;;;;;;5106186;28;19924;-65
2022/11/06 13:11:26;;;;;;;;;;;16.80;93.90;;;;;;5110387;28;19955;-67
2022/11/06 13:13:55;;;;;;;;;;;17.00;93.90;;;;;;5109080;28;19949;-67
2022/11/06 13:16:24;;;;;;;;;;;16.60;93.80;;;;;;5111955;28;19932;-64
2022/11/06 13:19:09;;;;;;;;;;;16.90;93.80;;;;;;5109944;28;20274;-65
2022/11/06 13:21:37;;;;;;;;;;;16.60;94.00;;;;;;5093709;28;19928;-66
2022/11/06 13:24:09;;;;;;;;;;;16.70;93.80;;;;;;5109698;28;19977;-67
2022/11/06 13:26:40;;;;;;;;;;;16.90;93.90;;;;;;5108952;28;19924;-66
2022/11/06 13:29:08;;;;;;;;;;;16.90;93.90;;;;;;5092835;28;19976;-68
2022/11/06 13:31:47;;;;;;;;;;;16.60;93.80;;;;;;5083833;28;19924;-65
2022/11/06 13:34:17;;;;;;;;;;;16.70;93.90;;;;;;5107391;28;20375;-67
2022/11/06 13:36:43;;;;;;;;;;;16.70;93.80;;;;;;5108883;28;20015;-66
2022/11/06 13:39:08;;;;;;;;;;;16.70;93.90;;;;;;5111222;28;20006;-65
2022/11/06 13:41:35;;;;;;;;;;;16.60;94.00;;;;;;5107682;28;19920;-68
2022/11/06 13:44:01;;;;;;;;;;;16.80;93.90;;;;;;5109902;28;19947;-67
2022/11/06 13:46:46;;;;;;;;;;;16.70;93.90;;;;;;5095982;28;19924;-66
2022/11/06 13:49:50;;;;;;;;;;;16.50;93.80;;;;;;5095070;28;20352;-65
2022/11/06 13:52:20;;;;;;;;;;;16.70;93.90;;;;;;5074600;28;19924;-66
2022/11/06 13:54:46;;;;;;;;;;;;;;;;;;5066981;28;21393;-66
2022/11/06 13:57:15;;;;;;;;;;;16.50;93.90;;;;;;5066592;28;19953;-66
2022/11/06 13:59:58;;;;;;;;;;;16.60;93.90;;;;;;5064301;28;20071;-65
2022/11/06 14:02:57;;;;;;;;;;;16.70;93.90;;;;;;5056973;28;20444;-68
2022/11/06 14:05:41;;;;;;;;;;;16.60;93.90;;;;;;5001458;28;20405;-68
2022/11/06 14:08:10;;;;;;;;;;;16.50;93.90;;;;;;5025698;28;19925;-69
2022/11/06 14:10:36;;;;;;;;;;;16.60;93.90;;;;;;5010177;28;19945;-69
2022/11/06 14:13:02;;;;;;;;;;;16.70;93.60;;;;;;5017260;28;20025;-66
2022/11/06 14:15:30;;;;;;;;;;;16.70;93.70;;;;;;4997529;28;20004;-69
2022/11/06 14:17:57;;;;;;;;;;;16.70;93.60;;;;;;5000762;28;19983;-69
2022/11/06 14:20:36;;;;;;;;;;;16.50;93.60;;;;;;5005206;28;19968;-65
2022/11/06 14:23:31;;;;;;;;;;;16.40;93.60;;;;;;5028489;28;20425;-67
2022/11/06 14:26:03;;;;;;;;;;;16.30;93.50;;;;;;5008832;28;19926;-66
2022/11/06 14:28:38;;;;;;;;;;;16.50;93.60;;;;;;5012378;28;19930;-68
2022/11/06 14:31:04;;;;;;;;;;;16.20;93.50;;;;;;4980118;28;20334;-67
2022/11/06 14:33:39;;;;;;;;;;;16.30;93.50;;;;;;4995649;28;19930;-67
2022/11/06 14:36:31;;;;;;;;;;;16.00;93.30;;;;;;4993381;28;19925;-68
2022/11/06 14:38:56;;;;;;;;;;;16.20;93.60;;;;;;5011429;28;19932;-66